Portada
METAR-TAF:

METAR-TAF

Aeroports :

Wittering, Anglaterra

latitud: 52-37N, longitud: 000-28W, altitud: 84 m

Observació

L'informe es va fer fa 1 hora i 0 minuts, a les 07:50 UTC
Vent 16 kt del Sud-Oest
Temperatura 4°C
Humitat 81%
Pressió 994 hPa
Visibilitat 10 km o més

METAR: EGXT 120750Z AUTO 23016KT 9999 FEW180/// 04/01 Q0994

Hora: 08:50 (08:50 UTC)

Pronòstic

L'informe es va fer fa 18 hores i 59 minuts, a les 13:51 UTC
Pronòstic vàlid del 11 a les 15 UTC al 11 a les 18 UTC
Vent 17 kt del Oest
Visibilitat 10 km o més
Núvols disperses a una alçada de 2500 ft
Probabilitat 30% :
Temporalment
l' 11 a les 15 UTC al 11 a les 18 UTC
Vent 17 kt del Oest amb ràfegues de 27 kt
Visibilitat: 4000 m
Cel ennuvolat a una alçada de 1200 ft, Cumulonimbus.
xàfecs de pluja

TAF: EGXT 111351Z 1115/1118 27017KT 9999 SCT025 PROB30 TEMPO 1115/1118 27017G27KT 4000 +SHRA BKN012CB

Observacions i pronòstics meteorològics de més de 4000 aeroports (METAR i TAF).

Les estacions disponibles són els punts grocs i vermells al mapa.

Posi el ratolí al punt desitjat per veure el nom de l'estació.

Feu clic per veure les observacions i els pronòstics meteorològics.

Per canviar el mapa: feu clic els botons verds amb una creu de color negre per apropar; al botó verd amb un guió per allunyar la imatge; o en les fletxes verdes per a mapes adjacents.


METAR-TAF: